• Join FlightAware (Why Join?)
  • Login
  • US Flag 
09:15AM EDT


 

Airport Tracker/Info


-or-


 

Live Flight TrackerFlight Track Log ✈ UAL1650 ✈ 29-Oct-2013 ✈ KDEN - KIAH

Flight Track Log - Related Links

Times and Time Zones

All times are in EDT time to prevent confusion due to time zone crossing. See the UAL1650 flight status page for this flight to view local times or setup timezone preferences in your user account.

Time Position Orientation Groundspeed Altitude Reporting Facility
EDT Latitude Longitude Course Direction KTS MPH feet Rate Location/Type
05:11PM 39.8333 -104.7833 255° West 209 241 7,200  Level Denver TRACON
05:12PM 39.8167 -104.8667 255° West 247 284 9,500 2,100 Climbing Denver TRACON
05:13PM 39.7592 -104.9217 216° Southwest 270 311 11,400 1,980 Climbing Denver Center
05:14PM 39.6783 -104.9192 179° South 297 342 13,500 2,040 Climbing Denver Center
05:15PM 39.5742 -104.8900 168° South 359 413 15,700 2,220 Climbing Denver Center
05:16PM 39.4761 -104.8628 168° South 362 417 18,100 2,400 Climbing Denver Center
05:17PM 39.3647 -104.8303 167° South 380 437 20,700 2,340 Climbing Denver Center
05:18PM 39.2606 -104.8014 168° South 383 441 22,900 1,920 Climbing Denver Center
05:19PM 39.1561 -104.7697 167° South 391 450 24,700 1,680 Climbing Denver Center
05:20PM 39.0483 -104.7386 167° South 400 460 26,400 1,680 Climbing Denver Center
05:21PM 38.9394 -104.6942 162° South 411 473 28,200 1,920 Climbing Denver Center
05:22PM 38.8089 -104.6375 161° South 408 470 30,400 1,980 Climbing Denver Center
05:23PM 38.7036 -104.5944 162° South 401 461 32,300 1,200 Climbing Denver Center
05:24PM 38.5981 -104.5508 162° South 400 460 33,000 300 Climbing Denver Center
05:25PM 38.4933 -104.5081 162° South 396 456 33,000  Level Denver Center
05:26PM 38.3872 -104.4653 162° South 399 459 33,000 240 Level Denver Center
05:27PM 38.2639 -104.4058 159° South 412 474 33,500 960 Climbing Denver Center
05:28PM 38.1700 -104.3286 147° Southeast 419 482 35,100 1,200 Climbing Denver Center
05:29PM 38.0744 -104.2508 147° Southeast 423 487 36,100 840 Climbing Denver Center
05:30PM 37.9600 -104.1589 148° Southeast 434 499 36,900 420 Climbing Denver Center
05:31PM 37.8600 -104.0772 147° Southeast 443 510 37,000  Climbing Denver Center
05:32PM 37.7400 -103.9811 148° Southeast 452 520 37,000  Level Denver Center
05:33PM 37.6353 -103.8975 148° Southeast 455 524 37,000  Level Denver Center
05:34PM 37.5317 -103.8150 148° Southeast 449 517 37,000  Level Denver Center
05:35PM 37.4133 -103.7219 148° Southeast 445 512 37,000  Level Denver Center
05:36PM 37.3128 -103.6425 148° Southeast 443 510 37,000  Level Denver Center
05:37PM 37.1992 -103.5444 145° Southeast 443 510 37,000  Level Denver Center
05:38PM 37.1089 -103.4458 139° Southeast 449 517 37,000  Level Denver Center
05:39PM 37.0517 -103.3750 135° Southeast 452 520 37,000  Level Albuquerque Center
05:40PM 36.9700 -103.2622 132° Southeast 455 524 37,000  Level Albuquerque Center
05:41PM 36.8736 -103.1314 133° Southeast 457 526 37,000  Level Albuquerque Center
05:42PM 36.7903 -103.0208 133° Southeast 457 526 37,000  Level Albuquerque Center
05:43PM 36.6933 -102.8900 133° Southeast 458 527 37,000  Level Albuquerque Center
05:44PM 36.6139 -102.7836 133° Southeast 460 529 37,000  Level Albuquerque Center
05:45PM 36.5236 -102.6661 134° Southeast 467 537 37,000  Level Albuquerque Center
05:46PM 36.4178 -102.5256 133° Southeast 466 536 37,000  Level Albuquerque Center
05:47PM 36.3289 -102.4072 133° Southeast 467 537 37,000  Level Albuquerque Center
05:48PM 36.2383 -102.2892 134° Southeast 470 541 37,000  Level Albuquerque Center
05:49PM 36.1494 -102.1742 134° Southeast 466 536 37,000  Level Albuquerque Center
05:50PM 36.0611 -102.0597 134° Southeast 462 532 37,000  Level Albuquerque Center
05:51PM 35.9739 -101.9442 133° Southeast 460 529 37,000  Level Albuquerque Center
05:52PM 35.8681 -101.8078 134° Southeast 459 528 37,000  Level Albuquerque Center
05:53PM 35.7803 -101.6942 134° Southeast 457 526 37,000  Level Albuquerque Center
05:55PM 35.6917 -101.5811 134° Southeast 458 527 37,000  Level Albuquerque Center
05:56PM 35.6028 -101.4664 134° Southeast 459 528 37,000  Level Albuquerque Center
05:57PM 35.5128 -101.3519 134° Southeast 461 531 37,000  Level Albuquerque Center
05:58PM 35.4222 -101.2364 134° Southeast 464 534 37,000  Level Albuquerque Center
05:59PM 35.3308 -101.1222 134° Southeast 465 535 37,000  Level Albuquerque Center
06:00PM 35.2386 -101.0069 134° Southeast 470 541 37,000  Level Albuquerque Center
06:01PM 35.1467 -100.8908 134° Southeast 472 543 37,000  Level Albuquerque Center
06:02PM 35.0350 -100.7514 134° Southeast 476 548 37,000  Level Albuquerque Center
06:03PM 34.9422 -100.6364 135° Southeast 476 548 37,000  Level Albuquerque Center
06:04PM 34.8489 -100.5231 135° Southeast 475 547 37,000  Level Albuquerque Center
06:05PM 34.7575 -100.4086 134° Southeast 473 544 37,000  Level Albuquerque Center
06:06PM 34.6564 -100.2853 135° Southeast 473 544 37,000  Level Albuquerque Center
06:07PM 34.5733 -100.1825 134° Southeast 470 541 37,000  Level Albuquerque Center
06:08PM 34.4808 -100.0714 135° Southeast 468 539 37,000  Level Fort Worth Center
06:09PM 34.3894 -99.9603 135° Southeast 468 539 37,000  Level Fort Worth Center
06:10PM 34.2917 -99.8417 135° Southeast 468 539 37,000  Level Fort Worth Center
06:11PM 34.1997 -99.7311 135° Southeast 463 533 37,000  Level Fort Worth Center
06:12PM 34.1100 -99.6208 134° Southeast 463 533 37,000  Level Fort Worth Center
06:13PM 34.0200 -99.5133 135° Southeast 463 533 37,000  Level Fort Worth Center
06:14PM 33.9281 -99.4011 135° Southeast 463 533 37,000  Level Fort Worth Center
06:15PM 33.8336 -99.2889 135° Southeast 463 533 37,000  Level Fort Worth Center
06:16PM 33.7433 -99.1819 135° Southeast 468 539 37,000  Level Fort Worth Center
06:17PM 33.6511 -99.0728 135° Southeast 468 539 37,000  Level Fort Worth Center
06:18PM 33.5564 -98.9664 137° Southeast 468 539 37,000  Level Fort Worth Center
06:19PM 33.4597 -98.8478 134° Southeast 483 556 37,000  Level Fort Worth Center
06:20PM 33.3650 -98.7367 136° Southeast 477 549 37,000  Level Fort Worth Center
06:21PM 33.2700 -98.6258 136° Southeast 477 549 37,000  Level Fort Worth Center
06:22PM 33.1750 -98.5153 136° Southeast 477 549 37,000  Level Fort Worth Center
06:23PM 33.0922 -98.4200 136° Southeast 472 543 37,000  Level Fort Worth Center
06:24PM 32.9992 -98.3125 136° Southeast 472 543 37,000  Level Fort Worth Center
06:25PM 32.9019 -98.2028 137° Southeast 472 543 37,000  Level Fort Worth Center
06:26PM 32.8064 -98.0931 136° Southeast 472 543 37,000  Level Fort Worth Center
06:27PM 32.7111 -97.9764 134° Southeast 478 550 37,000  Level Fort Worth Center
06:28PM 32.6156 -97.8647 135° Southeast 478 550 37,000  Level Fort Worth Center
06:29PM 32.5219 -97.7486 134° Southeast 483 556 37,000  Level Fort Worth Center
06:30PM 32.4261 -97.6300 134° Southeast 488 562 37,000  Level Fort Worth Center
06:31PM 32.3322 -97.5117 133° Southeast 488 562 37,000  Level Fort Worth Center
06:32PM 32.2364 -97.3914 133° Southeast 493 567 37,000  Level Fort Worth Center
06:33PM 32.1403 -97.2736 134° Southeast 493 567 37,000  Level Fort Worth Center
06:34PM 32.0461 -97.1608 135° Southeast 493 567 37,000  Level Fort Worth Center
06:35PM 31.9539 -97.0386 132° Southeast 493 567 37,000  Level Fort Worth Center
06:36PM 31.8617 -96.9242 133° Southeast 486 559 37,000 -1,200 Level Fort Worth Center
06:37PM 31.7500 -96.7911 135° Southeast 486 559 34,500 -2,340 Descending Houston Center
06:38PM 31.6531 -96.6742 134° Southeast 491 565 31,900 -2,520 Descending Houston Center
06:39PM 31.5378 -96.5369 135° Southeast 498 573 29,400 -1,440 Descending Houston Center
06:40PM 31.4231 -96.4664 152° Southeast 464 534 29,000 -1,080 Descending Houston Center
06:41PM 31.3125 -96.3917 150° Southeast 453 521 27,200 -2,400 Descending Houston Center
06:42PM 31.2011 -96.3225 152° Southeast 448 516 24,200 -2,700 Descending Houston Center
06:43PM 31.0900 -96.2536 152° Southeast 446 513 21,700 -2,280 Descending Houston Center
06:44PM 30.9831 -96.1892 153° Southeast 432 497 19,500 -2,040 Descending Houston Center
06:45PM 30.8817 -96.1256 152° Southeast 414 476 17,500 -2,040 Descending Houston Center
06:46PM 30.7836 -96.0647 152° Southeast 398 458 15,400 -2,040 Descending Houston Center
06:47PM 30.6817 -96.0019 152° Southeast 395 455 13,300 -2,220 Descending Houston Center
06:48PM 30.5753 -95.9386 153° Southeast 383 441 10,900 -1,980 Descending Houston Center
06:48PM 30.5931 -95.9478 336° Northwest 391 450 11,300 -900 Climbing Houston Center
06:49PM 30.4864 -95.8833 152° Southeast 351 404 10,000 -1,260 Descending Houston Center
06:49PM 30.4864 -95.8828 90° East 360 414 10,000 -540 Level Houston Center
06:50PM 30.4053 -95.8444 158° South 284 327 9,500 -540 Descending Houston Center
06:50PM 30.4092 -95.8439 North 308 354 9,500 -1,140 Level Houston Center
06:51PM 30.3369 -95.8150 161° South 279 321 8,300 -1,200 Descending Houston Center
06:52PM 30.2647 -95.7953 167° South 258 297 7,300 -1,080 Descending Houston Center
06:53PM 30.2642 -95.7956 203° Southwest 271 312 7,200 -1,380 Descending Houston Center
06:54PM 30.1961 -95.7839 172° South 250 288 5,700 -1,740 Descending Houston Center
06:54PM 30.1303 -95.7483 155° Southeast 262 302 4,000 -1,680 Descending Houston Center
06:55PM 30.1308 -95.7481 23° Northeast 259 298 4,000 -1,020 Level Houston Center
06:55PM 30.0625 -95.7153 157° South 251 289 3,000 -1,020 Descending Houston Center
06:56PM 30.0547 -95.7089 145° Southeast 252 290 3,000  Level Houston Center
06:56PM 30.0303 -95.6611 121° Southeast 222 255 3,000  Level Houston Center
06:57PM 30.0286 -95.6447 97° East 227 261 3,000  Level Houston Center
06:57PM 30.0172 -95.5853 102° East 213 245 3,000  Level Houston Center
06:58PM 30.0158 -95.5769 101° East 218 251 3,000 -240 Level Houston Center
06:58PM 30.0050 -95.5192 102° East 211 243 2,800 -300 Descending Houston Center
06:59PM 30.0058 -95.5103 84° East 213 245 2,700 -1,140 Descending Houston Center
06:59PM 30.0056 -95.4564 90° East 177 204 1,700 -1,020 Descending Houston Center
07:00PM 30.0081 -95.4517 59° Northeast 194 223 1,700 -720 Level Houston Center
07:01PM 30.0078 -95.4103 90° East 134 154 1,000 -840 Descending Houston Center
07:01PM 30.0094 -95.4069 60° Northeast 164 189 900 -840 Descending Houston Center
07:02PM 30.0058 -95.3672 96° East 135 155 200 -540 Descending Houston Center
07:02PM 30.0081 -95.3619 64° Northeast 147 169 400 780 Climbing Houston Center